| Date | Time | Temp. (oF) | Dew Point (oF) | Rel. Hum. (%) | Press. (in.) | Wind Dir. | Wind Speed (mph) | Hourly Rainfall (in.) |
|
|---|---|---|---|---|---|---|---|---|---|
| 1 | 10/10 | 00:00 | 59 | 54 | 84 | 29.89 | W | 5 | 0.00 |
| 2 | 10/09 | 23:00 | 61 | 56 | 86 | 29.87 | N | 2 | 0.00 |
| 3 | 10/09 | 22:00 | 62 | 58 | 88 | 29.85 | W | 6 | 0.00 |
| 4 | 10/09 | 21:00 | 62 | 58 | 88 | 29.83 | SW | 0 | 0.00 |
| 5 | 10/09 | 20:00 | 62 | 58 | 88 | 29.81 | SW | 4 | 0.00 |
| 6 | 10/09 | 19:00 | 62 | 58 | 88 | 29.77 | W | 0 | 0.00 |
| 7 | 10/09 | 18:00 | 63 | 59 | 87 | 29.76 | SSW | 4 | 0.05 |
| 8 | 10/09 | 17:00 | 63 | 57 | 83 | 29.77 | SSW | 5 | 0.32 |
| 9 | 10/09 | 16:00 | 76 | 60 | 59 | 29.72 | SW | 2 | 0.00 |
| 10 | 10/09 | 15:00 | 78 | 60 | 56 | 29.72 | SSW | 5 | 0.00 |
| 11 | 10/09 | 14:00 | 79 | 64 | 61 | 29.75 | SW | 6 | 0.00 |
| 12 | 10/09 | 13:00 | 74 | 62 | 67 | 29.79 | SSW | 10 | 0.00 |
| 13 | 10/09 | 12:00 | 70 | 60 | 73 | 29.82 | SSE | 6 | 0.00 |
| 14 | 10/09 | 11:00 | 68 | 60 | 78 | 29.85 | SSW | 6 | 0.00 |
| 15 | 10/09 | 10:00 | 65 | 59 | 82 | 29.87 | SSW | 5 | 0.00 |
| 16 | 10/09 | 09:00 | 63 | 58 | 86 | 29.88 | SSW | 4 | 0.00 |
| 17 | 10/09 | 08:00 | 60 | 56 | 88 | 29.88 | S | 4 | 0.00 |
| 18 | 10/09 | 07:00 | 60 | 56 | 87 | 29.90 | S | 4 | 0.00 |
| 19 | 10/09 | 06:00 | 60 | 56 | 87 | 29.91 | SSW | 6 | 0.00 |
| 20 | 10/09 | 05:00 | 61 | 56 | 86 | 29.91 | SSW | 7 | 0.00 |
| 21 | 10/09 | 04:00 | 61 | 56 | 86 | 29.92 | S | 4 | 0.00 |
| 22 | 10/09 | 03:00 | 60 | 56 | 87 | 29.94 | S | 6 | 0.00 |
| 23 | 10/09 | 02:00 | 56 | 52 | 87 | 29.97 | SSW | 0 | 0.00 |
| 24 | 10/09 | 01:00 | 57 | 53 | 87 | 29.99 | SE | 0 | 0.00 |